Time;durP1;ratioP1;P1;durP2;ratioP2;P2;SDS_P1;SDS_P2;PMS_P1;PMS_P2;Temp;Humidity;BMP_temperature;BMP_pressure;BME280_temperature;BME280_humidity;BME280_pressure;Samples;Min_cycle;Max_cycle;Signal;HPM_P1;HPM_P2
2022/05/22 00:00:45;;;;;;;3.17;2.58;;;;;;;17.61;63.62;100373.09;5053907;27;102543;-57
2022/05/22 00:03:12;;;;;;;4.65;2.60;;;;;;;17.60;64.01;100382.47;5053202;27;104306;-57
2022/05/22 00:05:41;;;;;;;2.42;2.22;;;;;;;17.61;63.69;100375.84;5053598;27;102540;-57
2022/05/22 00:08:08;;;;;;;2.63;2.42;;;;;;;17.61;63.93;100373.09;5052927;27;102360;-57
2022/05/22 00:10:35;;;;;;;3.17;2.38;;;;;;;17.61;64.04;100389.63;5054302;27;102153;-57
2022/05/22 00:13:02;;;;;;;8.43;3.20;;;;;;;17.60;63.60;100382.47;5049086;27;103984;-57
2022/05/22 00:15:29;;;;;;;2.55;2.35;;;;;;;17.62;64.12;100385.72;5052049;27;102287;-57
2022/05/22 00:17:58;;;;;;;2.75;2.33;;;;;;;17.62;63.91;100392.03;5053063;27;101775;-57
2022/05/22 00:20:24;;;;;;;3.07;2.40;;;;;;;17.61;63.52;100386.88;5053937;27;102329;-57
2022/05/22 00:22:52;;;;;;;4.55;2.70;;;;;;;17.59;64.04;100391.88;5052616;27;104275;-57
2022/05/22 00:25:19;;;;;;;3.10;2.33;;;;;;;17.59;63.73;100394.63;5053109;27;101924;-57
2022/05/22 00:27:47;;;;;;;4.33;2.33;;;;;;;17.57;63.57;100388.66;5052928;27;102304;-58
2022/05/22 00:30:14;;;;;;;3.55;2.70;;;;;;;17.57;63.47;100391.41;5053440;27;102312;-57
2022/05/22 00:32:41;;;;;;;2.85;2.38;;;;;;;17.56;63.68;100378.75;5052689;27;104059;-58
2022/05/22 00:35:09;;;;;;;4.13;2.45;;;;;;;17.57;63.44;100383.16;5051100;27;102407;-57
2022/05/22 00:37:36;;;;;;;2.80;2.50;;;;;;;17.56;63.31;100378.75;5051488;27;102422;-57
2022/05/22 00:40:04;;;;;;;2.90;2.17;;;;;;;17.56;63.20;100387.00;5053914;27;102129;-57
2022/05/22 00:42:30;;;;;;;4.47;2.30;;;;;;;17.54;63.71;100390.91;5049892;27;103863;-57
2022/05/22 00:44:57;;;;;;;4.97;2.80;;;;;;;17.54;63.48;100393.66;5052647;27;102402;-57
2022/05/22 00:47:24;;;;;;;2.40;2.20;;;;;;;17.54;63.58;100368.09;5052765;27;102528;-58
2022/05/22 00:49:55;;;;;;;;;;;;;;;17.53;63.24;100375.53;5049567;27;102854;-58
2022/05/22 00:52:28;;;;;;;4.13;2.58;;;;;;;17.53;63.59;100361.78;5052421;27;103988;-58
2022/05/22 00:54:57;;;;;;;4.50;2.40;;;;;;;17.52;63.36;100343.63;5051514;27;102513;-57
2022/05/22 00:57:30;;;;;;;3.35;2.40;;;;;;;17.51;63.41;100344.78;5052681;27;102263;-57
2022/05/22 01:00:00;;;;;;;2.95;2.55;;;;;;;17.52;63.59;100351.91;5053410;27;102407;-57
2022/05/22 01:02:27;;;;;;;5.30;2.20;;;;;;;17.51;63.55;100353.03;5050024;27;104057;-57
2022/05/22 01:04:54;;;;;;;3.83;2.22;;;;;;;17.50;63.07;100343.19;5045506;27;103141;-57
2022/05/22 01:07:22;;;;;;;4.35;2.55;;;;;;;17.51;63.50;100346.72;5044898;27;102467;-57
2022/05/22 01:09:52;;;;;;;3.50;2.20;;;;;;;17.51;63.16;100354.97;5050226;27;102166;-57
2022/05/22 01:12:23;;;;;;;3.28;2.28;;;;;;;17.50;63.50;100350.63;5050180;27;104231;-57
2022/05/22 01:14:52;;;;;;;3.03;2.03;;;;;;;17.50;64.14;100345.13;5051949;27;102425;-58
2022/05/22 01:17:20;;;;;;;4.30;2.42;;;;;;;17.49;63.71;100349.81;5051264;27;102536;-57
2022/05/22 01:19:57;;;;;;;2.85;2.30;;;;;;;17.49;63.01;100343.50;5053214;27;102551;-57
2022/05/22 01:22:29;;;;;;;2.90;1.98;;;;;;;17.48;63.68;100341.88;5051580;27;103863;-57
2022/05/22 01:24:56;;;;;;;4.63;2.25;;;;;;;17.48;63.67;100337.19;5052053;27;102384;-57
2022/05/22 01:27:26;;;;;;;2.50;2.30;;;;;;;17.48;63.38;100336.38;5050890;27;102439;-57
2022/05/22 01:30:04;;;;;;;4.90;2.45;;;;;;;17.47;63.53;100349.31;5052265;27;102189;-57
2022/05/22 01:32:32;;;;;;;2.13;2.00;;;;;;;17.47;63.49;100349.31;5050515;27;103874;-57
2022/05/22 01:34:59;;;;;;;2.95;2.25;;;;;;;17.48;63.63;100347.38;5051377;27;102476;-57
2022/05/22 01:37:27;;;;;;;3.25;2.03;;;;;;;17.47;63.78;100341.06;5051669;27;102051;-57
2022/05/22 01:39:53;;;;;;;3.27;2.10;;;;;;;17.46;63.59;100333.97;5052885;27;102351;-57
2022/05/22 01:42:20;;;;;;;2.60;2.10;;;;;;;17.45;63.67;100332.31;5051253;27;103923;-57
2022/05/22 01:44:47;;;;;;;3.17;2.38;;;;;;;17.46;63.63;100333.16;5052510;27;102745;-57
2022/05/22 01:47:13;;;;;;;5.28;1.92;;;;;;;17.46;63.53;100342.22;5051248;27;102338;-57
2022/05/22 01:49:41;;;;;;;2.58;2.15;;;;;;;17.46;63.53;100331.22;5049256;27;102779;-57
2022/05/22 01:52:09;;;;;;;3.83;2.22;;;;;;;17.44;63.38;100336.22;5048575;27;104183;-57
2022/05/22 01:54:38;;;;;;;3.70;2.08;;;;;;;17.45;63.62;100332.31;5050278;27;102589;-57
2022/05/22 01:57:05;;;;;;;2.08;1.88;;;;;;;17.43;63.83;100329.09;5050327;27;104077;-57
2022/05/22 01:59:32;;;;;;;5.07;2.10;;;;;;;17.43;64.38;100329.09;5052564;27;102554;-57
2022/05/22 02:01:58;;;;;;;2.17;2.00;;;;;;;17.44;63.87;100325.22;5050306;27;103816;-57
2022/05/22 02:04:25;;;;;;;2.03;1.92;;;;;;;17.44;64.11;100336.22;5051451;27;102348;-57
2022/05/22 02:09:39;;;;;;;3.17;1.88;;;;;;;17.43;64.09;100328.31;5051782;27;101980;-57
2022/05/22 02:12:06;;;;;;;;;;;;;;;17.43;63.76;100323.63;5050861;27;103877;-58
2022/05/22 02:14:33;;;;;;;4.20;2.20;;;;;;;17.42;64.40;100318.44;5054285;27;101851;-57
2022/05/22 02:16:59;;;;;;;2.15;1.95;;;;;;;17.40;64.23;100318.75;5054000;27;102070;-57
2022/05/22 02:19:27;;;;;;;3.65;1.92;;;;;;;17.40;63.87;100324.25;5056222;27;102139;-57
2022/05/22 02:21:53;;;;;;;3.45;2.00;;;;;;;17.42;64.19;100330.25;5054799;27;104192;-57
2022/05/22 02:24:20;;;;;;;6.10;1.88;;;;;;;17.42;64.24;100338.50;5054566;27;102369;-57
2022/05/22 02:26:48;;;;;;;3.22;1.98;;;;;;;17.41;64.19;100338.81;5054392;27;102375;-57
2022/05/22 02:29:16;;;;;;;2.08;1.88;;;;;;;17.40;64.06;100335.25;5052896;27;103071;-57
2022/05/22 02:31:43;;;;;;;2.20;1.90;;;;;;;17.41;63.95;100328.63;5053824;27;104231;-57
2022/05/22 02:34:10;;;;;;;2.70;2.10;;;;;;;17.41;63.87;100336.06;5055052;27;101967;-57
2022/05/22 02:36:36;;;;;;;2.78;1.77;;;;;;;17.41;63.96;100331.38;5054465;27;102411;-57
2022/05/22 02:39:03;;;;;;;2.30;1.90;;;;;;;17.41;64.23;100334.13;5055942;27;102484;-58
2022/05/22 02:41:35;;;;;;;2.72;2.10;;;;;;;17.43;63.83;100331.06;5053475;27;103944;-57
2022/05/22 02:44:07;;;;;;;2.35;1.73;;;;;;;17.43;64.40;100337.38;5053643;27;102582;-57
2022/05/22 02:46:35;;;;;;;2.20;2.00;;;;;;;17.41;64.29;100334.13;5053010;27;101864;-58
2022/05/22 02:49:03;;;;;;;2.35;1.77;;;;;;;17.42;64.39;100332.19;5055833;27;102220;-57
2022/05/22 02:51:30;;;;;;;2.13;1.60;;;;;;;17.40;64.09;100326.22;5053915;27;103915;-57
2022/05/22 02:54:00;;;;;;;2.00;1.75;;;;;;;17.41;64.47;100331.38;5054851;27;102432;-57
2022/05/22 02:56:28;;;;;;;2.58;1.73;;;;;;;17.40;64.52;100321.50;5052933;27;102373;-56
2022/05/22 02:58:59;;;;;;;2.15;1.95;;;;;;;17.41;64.29;100325.88;5055938;27;102097;-56
2022/05/22 03:01:28;;;;;;;2.38;1.80;;;;;;;17.39;64.41;100311.66;5053521;27;103900;-56
2022/05/22 03:03:55;;;;;;;2.25;1.85;;;;;;;17.40;64.44;100301.44;5054921;27;102340;-57
2022/05/22 03:06:39;;;;;;;3.95;1.75;;;;;;;17.40;64.73;100306.94;5050633;27;102370;-56
2022/05/22 03:09:07;;;;;;;2.17;1.50;;;;;;;17.39;64.04;100306.16;5054543;27;102075;-56
2022/05/22 03:11:37;;;;;;;1.70;1.60;;;;;;;17.40;64.49;100313.25;5053066;27;103884;-56
2022/05/22 03:14:07;;;;;;;2.55;1.90;;;;;;;17.40;64.37;100312.44;5052432;27;102398;-56
2022/05/22 03:16:38;;;;;;;2.90;2.15;;;;;;;17.40;64.55;100306.94;5054013;27;102554;-57
2022/05/22 03:19:05;;;;;;;3.47;1.90;;;;;;;17.41;64.41;100314.88;5054524;27;102619;-57
2022/05/22 03:21:33;;;;;;;2.40;1.70;;;;;;;17.42;64.21;100313.75;5052272;27;103936;-56
2022/05/22 03:23:59;;;;;;;2.17;1.63;;;;;;;17.43;64.07;100315.34;5052973;27;103640;-57
2022/05/22 03:26:26;;;;;;;4.30;2.00;;;;;;;17.45;64.17;100326.03;5053975;27;102389;-57
2022/05/22 03:28:52;;;;;;;3.97;1.80;;;;;;;17.45;64.28;100326.81;5054988;27;102364;-57
2022/05/22 03:31:21;;;;;;;2.25;1.70;;;;;;;17.46;63.86;100333.16;5052768;27;103835;-57
2022/05/22 03:33:50;;;;;;;6.55;1.80;;;;;;;17.45;64.07;100332.31;5054278;27;102259;-57
2022/05/22 03:36:18;;;;;;;10.25;2.13;;;;;;;17.45;64.20;100332.31;5053035;27;101779;-56
2022/05/22 03:38:45;;;;;;;2.40;1.80;;;;;;;17.45;64.22;100337.81;5052625;27;102351;-57
2022/05/22 03:41:14;;;;;;;3.35;1.58;;;;;;;17.44;64.32;100330.72;5052841;27;103704;-57
2022/05/22 03:43:43;;;;;;;1.85;1.50;;;;;;;17.44;63.98;100333.47;5053044;27;102425;-57
2022/05/22 03:46:10;;;;;;;3.58;1.77;;;;;;;17.44;64.58;100327.16;5053869;27;102333;-57
2022/05/22 03:48:36;;;;;;;3.28;2.30;;;;;;;17.44;64.00;100327.97;5054926;27;102318;-57
2022/05/22 03:51:09;;;;;;;2.20;1.77;;;;;;;17.44;64.66;100325.22;5053085;27;103650;-57
2022/05/22 03:53:41;;;;;;;1.75;1.60;;;;;;;17.45;64.41;100331.53;5054105;27;102361;-57
2022/05/22 03:56:11;;;;;;;2.20;2.00;;;;;;;17.44;64.49;100336.22;5053389;27;102353;-57
2022/05/22 03:58:38;;;;;;;2.58;1.50;;;;;;;17.45;64.27;100337.03;5051494;27;102038;-57
2022/05/22 04:01:07;;;;;;;2.67;1.77;;;;;;;17.43;64.31;100331.88;5051227;27;104116;-57
2022/05/22 04:03:34;;;;;;;8.88;1.90;;;;;;;17.44;64.47;100336.22;5052525;27;102284;-57
2022/05/22 04:06:05;;;;;;;1.70;1.60;;;;;;;17.44;64.36;100335.41;5052754;27;102491;-57
2022/05/22 04:08:35;;;;;;;4.60;1.77;;;;;;;17.43;64.39;100334.63;5052563;27;102130;-57
2022/05/22 04:11:08;;;;;;;4.50;1.73;;;;;;;17.44;64.79;100333.47;5052764;27;103926;-57
2022/05/22 04:13:40;;;;;;;4.85;1.73;;;;;;;17.43;64.29;100323.63;5049911;27;101997;-57
2022/05/22 04:16:07;;;;;;;2.40;1.60;;;;;;;17.44;64.37;100330.72;5052816;27;102188;-57
2022/05/22 04:18:35;;;;;;;1.75;1.50;;;;;;;17.45;64.58;100337.03;5051895;27;102661;-57
2022/05/22 04:21:05;;;;;;;2.28;1.50;;;;;;;17.43;64.67;100329.09;5051373;27;103891;-57
2022/05/22 04:26:16;;;;;;;1.70;1.60;;;;;;;17.43;64.50;100331.06;5052892;27;102203;-57
2022/05/22 04:28:43;;;;;;;3.67;1.67;;;;;;;17.42;64.59;100327.50;5046979;27;102273;-57
2022/05/22 04:31:10;;;;;;;2.45;1.30;;;;;;;17.43;64.20;100340.13;5032453;28;103873;-57
2022/05/22 04:33:39;;;;;;;3.80;1.58;;;;;;;17.43;64.21;100340.13;5033044;27;101918;-57
2022/05/22 04:36:08;;;;;;;2.78;1.88;;;;;;;17.43;64.60;100334.63;5031179;27;102138;-57
2022/05/22 04:38:34;;;;;;;2.27;1.30;;;;;;;17.42;64.50;100324.75;5038226;27;102171;-57
2022/05/22 04:41:03;;;;;;;1.75;1.48;;;;;;;17.43;64.28;100339.31;5052294;27;103942;-57
2022/05/22 04:43:32;;;;;;;1.83;1.70;;;;;;;17.42;64.09;100333.00;5053319;27;102205;-57
2022/05/22 04:46:04;;;;;;;2.10;1.60;;;;;;;17.41;64.61;100328.63;5052331;27;102310;-57
2022/05/22 04:48:38;;;;;;;1.75;1.48;;;;;;;17.41;64.39;100325.06;5053839;27;102297;-57
2022/05/22 04:51:04;;;;;;;2.03;1.60;;;;;;;17.42;64.08;100333.00;5052431;27;104163;-58
2022/05/22 04:53:33;;;;;;;2.03;1.50;;;;;;;17.42;64.50;100333.00;5051338;27;102255;-57
2022/05/22 04:56:00;;;;;;;1.75;1.65;;;;;;;17.42;64.00;100322.00;5052114;27;102239;-57
2022/05/22 04:58:27;;;;;;;2.42;1.70;;;;;;;17.42;64.13;100322.00;5052279;27;102332;-57
2022/05/22 05:00:55;;;;;;;2.30;1.67;;;;;;;17.42;63.97;100327.50;5046856;27;103844;-57
2022/05/22 05:03:22;;;;;;;1.83;1.73;;;;;;;17.43;64.37;100320.84;5052249;27;101904;-58
2022/05/22 05:05:57;;;;;;;2.75;1.70;;;;;;;17.40;64.24;100324.25;5038899;27;102818;-57
2022/05/22 05:08:26;;;;;;;2.30;1.50;;;;;;;17.41;64.39;100331.38;5052696;27;102323;-57
2022/05/22 05:10:54;;;;;;;2.38;1.48;;;;;;;17.42;64.21;100327.50;5050882;27;105098;-58
2022/05/22 05:13:24;;;;;;;3.42;1.55;;;;;;;17.38;64.61;100321.03;5050583;27;102519;-57
2022/05/22 05:15:59;;;;;;;1.75;1.50;;;;;;;17.39;64.55;100317.16;5050090;27;102750;-57
2022/05/22 05:18:25;;;;;;;2.83;1.60;;;;;;;17.39;64.87;100317.16;5047901;27;102407;-57
2022/05/22 05:20:58;;;;;;;2.55;1.65;;;;;;;17.40;63.71;100317.94;5047352;27;104790;-57
2022/05/22 05:23:24;;;;;;;2.28;1.50;;;;;;;17.43;63.56;100312.59;5050474;27;101957;-57
2022/05/22 05:25:53;;;;;;;4.40;1.95;;;;;;;17.46;63.30;100305.66;5051556;27;102462;-57
2022/05/22 05:28:23;;;;;;;3.10;1.60;;;;;;;17.46;63.80;100314.72;5052776;27;102349;-58
2022/05/22 05:30:49;;;;;;;4.00;1.60;;;;;;;17.46;63.96;100316.66;5050352;27;103834;-57
2022/05/22 05:33:17;;;;;;;1.73;1.33;;;;;;;17.46;64.31;100317.47;5052647;27;101980;-57
2022/05/22 05:35:44;;;;;;;1.63;1.45;;;;;;;17.46;63.90;100320.22;5051586;27;102389;-57
2022/05/22 05:38:18;;;;;;;1.67;1.50;;;;;;;17.45;63.85;100310.31;5051728;27;102086;-57
2022/05/22 05:40:48;;;;;;;1.80;1.50;;;;;;;17.45;63.53;100310.31;5051282;27;104085;-57
2022/05/22 05:43:19;;;;;;;2.20;1.67;;;;;;;17.45;63.75;100310.31;5052034;27;102007;-57
2022/05/22 05:45:48;;;;;;;2.60;1.58;;;;;;;17.45;63.67;100304.81;5051348;27;102373;-57
2022/05/22 05:48:14;;;;;;;2.38;1.52;;;;;;;17.44;63.42;100311.47;5052609;27;102592;-56
2022/05/22 05:50:42;;;;;;;4.68;1.90;;;;;;;17.44;63.62;100314.22;5050704;27;104110;-57
2022/05/22 05:53:08;;;;;;;2.83;1.65;;;;;;;17.44;63.52;100316.97;5048511;27;102446;-57
2022/05/22 05:55:35;;;;;;;1.70;1.58;;;;;;;17.44;63.59;100314.22;5051162;27;102000;-57
2022/05/22 05:58:03;;;;;;;1.77;1.42;;;;;;;17.44;63.51;100314.22;5045863;27;102044;-57
2022/05/22 06:00:31;;;;;;;2.92;1.70;;;;;;;17.43;63.40;100307.09;5033450;27;103874;-57
2022/05/22 06:03:00;;;;;;;3.95;1.52;;;;;;;17.44;63.73;100307.91;5045264;27;102547;-57
2022/05/22 06:05:31;;;;;;;2.13;1.75;;;;;;;17.43;63.60;100312.59;5040345;27;103601;-57
2022/05/22 06:07:57;;;;;;;3.15;1.60;;;;;;;17.45;63.69;100315.00;5045530;27;103347;-57
2022/05/22 06:10:29;;;;;;;3.65;1.50;;;;;;;17.45;63.37;100310.31;5049330;27;103894;-57
2022/05/22 06:12:58;;;;;;;2.60;1.50;;;;;;;17.45;63.34;100307.56;5044395;27;102587;-58
2022/05/22 06:15:28;;;;;;;1.50;1.40;;;;;;;17.45;63.50;100296.56;5046289;27;103577;-57
2022/05/22 06:17:58;;;;;;;2.15;1.55;;;;;;;17.45;64.02;100296.56;5038145;27;102226;-57
2022/05/22 06:20:26;;;;;;;3.13;1.50;;;;;;;17.46;63.72;100300.94;5039208;27;103935;-57
2022/05/22 06:22:54;;;;;;;1.85;1.75;;;;;;;17.46;63.54;100300.94;5049183;27;102213;-57
2022/05/22 06:25:23;;;;;;;2.08;1.45;;;;;;;17.47;63.80;100294.31;5042697;27;102468;-57
2022/05/22 06:27:53;;;;;;;1.58;1.48;;;;;;;17.50;64.07;100295.59;5049424;27;102242;-57
2022/05/22 06:30:21;;;;;;;2.42;1.70;;;;;;;17.51;64.06;100292.50;5051393;27;104102;-57
2022/05/22 06:32:47;;;;;;;2.30;1.50;;;;;;;17.54;63.87;100291.84;5051462;27;102098;-57
2022/05/22 06:35:17;;;;;;;2.70;1.60;;;;;;;17.58;63.67;100286.50;5048778;27;102544;-57
2022/05/22 06:37:44;;;;;;;2.70;1.40;;;;;;;17.61;63.75;100280.34;5043524;27;102422;-57
2022/05/22 06:40:12;;;;;;;1.63;1.30;;;;;;;17.62;63.75;100270.16;5047160;27;103964;-57
2022/05/22 06:42:44;;;;;;;2.97;1.48;;;;;;;17.62;63.81;100265.44;5037082;27;102559;-58
2022/05/22 06:45:15;;;;;;;2.58;1.60;;;;;;;17.65;63.48;100267.53;5047322;27;101960;-57
2022/05/22 06:47:44;;;;;;;2.78;1.35;;;;;;;17.66;63.59;100276.59;5048867;27;102384;-57
2022/05/22 06:50:16;;;;;;;1.60;1.50;;;;;;;17.65;63.46;100269.50;5032413;27;104070;-57
2022/05/22 06:52:47;;;;;;;1.40;1.30;;;;;;;17.64;63.69;100273.38;5035347;27;102637;-57
2022/05/22 06:55:15;;;;;;;2.88;1.42;;;;;;;17.61;63.65;100269.34;5033090;27;102491;-57
2022/05/22 06:57:47;;;;;;;2.45;1.40;;;;;;;17.62;63.78;100265.44;5040664;27;102242;-57
2022/05/22 07:00:16;;;;;;;1.48;1.30;;;;;;;17.63;63.74;100271.75;5046250;27;104894;-57
2022/05/22 07:02:43;;;;;;;2.13;1.23;;;;;;;17.64;63.87;100265.94;5041493;27;102025;-57
2022/05/22 07:05:12;;;;;;;141.45;6.13;;;;;;;17.65;63.75;100266.75;5051606;27;102440;-57
2022/05/22 07:07:46;;;;;;;1.52;1.40;;;;;;;17.65;63.97;100259.28;5049191;27;102419;-58
2022/05/22 07:10:13;;;;;;;1.85;1.45;;;;;;;17.67;63.61;100261.69;5039830;27;103852;-57
2022/05/22 07:12:39;;;;;;;1.40;1.30;;;;;;;17.67;63.35;100259.78;5045270;27;102301;-56
2022/05/22 07:15:11;;;;;;;1.92;1.60;;;;;;;17.67;63.75;100262.53;5036949;27;102504;-57
2022/05/22 07:17:39;;;;;;;1.52;1.33;;;;;;;17.66;63.61;100260.09;5049035;27;102351;-57
2022/05/22 07:20:22;;;;;;;2.38;1.65;;;;;;;17.65;64.07;100261.25;5047218;27;103967;-57
2022/05/22 07:22:50;;;;;;;1.48;1.38;;;;;;;17.64;63.86;100252.19;5042679;27;102425;-58
2022/05/22 07:25:17;;;;;;;1.63;1.50;;;;;;;17.64;63.73;100262.38;5037685;27;102325;-57
2022/05/22 07:27:43;;;;;;;2.35;1.65;;;;;;;17.64;63.64;100251.38;5037859;27;102158;-57
2022/05/22 07:30:17;;;;;;;2.25;1.60;;;;;;;17.64;63.58;100245.88;5041196;27;103969;-56
2022/05/22 07:32:44;;;;;;;1.67;1.48;;;;;;;17.64;64.16;100252.19;5033596;27;102330;-57
2022/05/22 07:35:11;;;;;;;2.15;1.50;;;;;;;17.66;63.80;100249.09;5040695;27;102179;-57
2022/05/22 07:37:38;;;;;;;5.45;1.70;;;;;;;17.67;63.75;100246.03;5048205;27;102205;-57
2022/05/22 07:40:09;;;;;;;1.35;1.25;;;;;;;17.69;63.82;100242.94;5051664;27;103869;-57
2022/05/22 07:42:39;;;;;;;1.58;1.48;;;;;;;17.71;63.98;100232.41;5049850;27;102410;-57
2022/05/22 07:45:07;;;;;;;1.63;1.52;;;;;;;17.73;63.77;100227.38;5036402;27;102366;-57
2022/05/22 07:47:34;;;;;;;1.42;1.30;;;;;;;17.77;63.91;100233.84;5045482;27;102409;-57
2022/05/22 07:50:20;;;;;;;2.65;1.48;;;;;;;17.77;63.53;100233.84;5051769;27;103965;-57
2022/05/22 07:52:48;;;;;;;1.50;1.40;;;;;;;17.77;63.51;100217.31;5043204;27;102462;-57
2022/05/22 07:55:20;;;;;;;1.60;1.42;;;;;;;17.77;63.47;100222.84;5051568;27;102564;-57
2022/05/22 07:57:49;;;;;;;1.42;1.33;;;;;;;17.78;63.60;100224.47;5051936;27;102011;-56
2022/05/22 08:00:20;;;;;;;1.20;1.08;;;;;;;17.77;63.72;100217.31;5048826;27;103956;-56
2022/05/22 08:02:50;;;;;;;1.67;1.48;;;;;;;17.77;63.35;100214.56;5044696;27;102821;-57
2022/05/22 08:05:18;;;;;;;1.25;1.15;;;;;;;17.77;63.54;100211.81;5046873;27;102338;-57
2022/05/22 08:07:45;;;;;;;1.50;1.40;;;;;;;17.77;63.51;100207.13;5040115;27;102484;-57
2022/05/22 08:10:21;;;;;;;2.20;1.40;;;;;;;17.78;63.80;100213.47;5051075;27;104045;-57
2022/05/22 08:12:54;;;;;;;1.43;1.30;;;;;;;17.81;63.80;100193.50;5052982;27;102105;-57
2022/05/22 08:15:23;;;;;;;3.72;1.30;;;;;;;17.83;63.81;100193.19;5052776;27;102033;-57
2022/05/22 08:17:49;;;;;;;1.52;1.10;;;;;;;17.83;63.69;100193.19;5054448;27;102604;-57
2022/05/22 08:20:18;;;;;;;1.92;1.10;;;;;;;17.86;63.73;100187.81;5051890;27;103937;-57
2022/05/22 08:22:47;;;;;;;1.80;1.52;;;;;;;17.87;63.47;100194.13;5053589;27;102122;-57
2022/05/22 08:25:15;;;;;;;2.30;1.20;;;;;;;17.86;63.40;100182.31;5039831;27;102389;-56
2022/05/22 08:27:43;;;;;;;1.10;1.08;;;;;;;17.86;63.68;100176.81;5048059;27;102237;-57
2022/05/22 08:30:19;;;;;;;2.70;1.35;;;;;;;17.88;63.52;100174.50;5041030;27;103907;-57
2022/05/22 08:32:49;;;;;;;1.63;1.40;;;;;;;17.90;63.88;100172.25;5033789;27;102825;-57
2022/05/22 08:35:19;;;;;;;1.10;0.98;;;;;;;17.90;63.13;100180.50;5041045;27;101979;-57
2022/05/22 08:37:47;;;;;;;2.08;1.10;;;;;;;17.90;63.59;100168.69;5040362;27;102040;-57
2022/05/22 08:40:17;;;;;;;1.65;1.10;;;;;;;17.89;63.33;100165.13;5051148;27;103981;-57
2022/05/22 08:42:50;;;;;;;2.13;1.45;;;;;;;17.91;63.61;100168.34;5049930;27;101946;-57
2022/05/22 08:45:20;;;;;;;1.80;1.45;;;;;;;17.92;63.67;100160.91;5049018;27;102314;-57
2022/05/22 08:47:57;;;;;;;1.20;1.10;;;;;;;17.92;63.23;100158.97;5049280;27;102211;-57
2022/05/22 08:50:30;;;;;;;1.20;1.10;;;;;;;17.90;63.42;100150.22;5042126;27;104388;-57
2022/05/22 08:53:01;;;;;;;1.50;1.25;;;;;;;17.90;63.22;100155.72;5041381;27;102091;-57
2022/05/22 08:58:56;;;;;;;1.00;0.80;;;;;;;18.35;57.92;100143.22;5043554;27;102169;-62
2022/05/22 09:01:12;;;;;;;9.68;1.30;;;;;;;18.95;51.59;100133.59;5033488;27;104250;-58
2022/05/22 09:03:47;;;;;;;6.13;1.05;;;;;;;19.00;50.42;100124.28;5046369;27;102878;-57
2022/05/22 09:06:26;;;;;;;0.80;0.60;;;;;;;19.12;48.86;100119.59;5052144;27;102690;-56
2022/05/22 09:08:59;;;;;;;4.15;0.90;;;;;;;19.19;48.53;100127.31;5053297;27;102130;-53
2022/05/22 09:11:36;;;;;;;8.45;1.48;;;;;;;19.27;47.99;100120.06;5050963;27;104139;-52
2022/05/22 09:14:09;;;;;;;6.15;1.20;;;;;;;19.24;48.63;100121.56;5052282;27;102355;-56
2022/05/22 09:16:43;;;;;;;2.10;0.88;;;;;;;19.23;48.99;100114.44;5042503;27;102154;-55
2022/05/22 09:19:12;;;;;;;1.85;0.60;;;;;;;19.34;47.76;100104.56;5052062;27;102501;-57
2022/05/22 09:21:50;;;;;;;4.50;1.23;;;;;;;19.36;47.59;100099.47;5050144;27;103936;-57
2022/05/22 09:24:31;;;;;;;3.20;0.90;;;;;;;19.29;48.50;100109.47;5048786;27;102079;-64
2022/05/22 09:27:07;;;;;;;2.13;0.90;;;;;;;19.44;47.40;100106.84;5052041;27;102375;-65
2022/05/22 09:29:48;;;;;;;6.10;0.93;;;;;;;19.47;46.75;100107.28;5043860;27;101924;-56
2022/05/22 09:32:44;;;;;;;3.25;1.08;;;;;;;19.42;46.42;100089.81;5051678;27;103977;-59
2022/05/22 09:35:19;;;;;;;2.60;0.90;;;;;;;19.39;46.07;100090.50;5049270;27;102051;-58
2022/05/22 09:38:03;;;;;;;6.45;0.98;;;;;;;19.56;46.14;100083.94;5051936;27;102320;-57
2022/05/22 09:40:39;;;;;;;5.70;0.77;;;;;;;19.77;45.00;100083.84;5052857;27;102430;-68
2022/05/22 09:43:34;;;;;;;3.03;0.80;;;;;;;19.61;45.96;100080.13;5051589;27;103818;-68
2022/05/22 09:46:23;;;;;;;5.55;0.80;;;;;;;19.67;45.83;100084.31;5043097;27;102456;-62
2022/05/22 09:49:15;;;;;;;6.00;0.90;;;;;;;19.66;45.76;100074.44;5037907;27;104081;-57
2022/05/22 09:51:56;;;;;;;5.00;0.77;;;;;;;19.80;45.83;100072.09;5037684;27;102345;-55
2022/05/22 09:54:43;;;;;;;4.65;1.20;;;;;;;19.70;46.14;100063.50;5045412;27;104025;-60
2022/05/22 09:57:26;;;;;;;4.78;1.95;;;;;;;19.82;44.02;100064.25;5052078;27;102365;-60
2022/05/22 10:00:07;;;;;;;11.00;0.95;;;;;;;19.84;44.37;100059.19;5052540;27;102387;-63
2022/05/22 10:02:46;;;;;;;4.47;0.90;;;;;;;19.93;44.71;100065.38;5031691;27;102355;-58
2022/05/22 10:05:22;;;;;;;5.07;0.80;;;;;;;19.96;44.04;100065.84;5044856;27;103940;-57
2022/05/22 10:07:58;;;;;;;5.43;1.40;;;;;;;20.08;43.61;100057.50;5051659;27;101872;-56
2022/05/22 10:10:38;;;;;;;1.27;0.82;;;;;;;20.01;43.49;100068.34;5050542;27;101938;-54
2022/05/22 10:13:16;;;;;;;6.25;0.98;;;;;;;19.91;43.77;100061.38;5052806;27;101884;-56
2022/05/22 10:16:00;;;;;;;4.97;0.80;;;;;;;19.90;43.54;100059.75;5051505;27;103902;-54
2022/05/22 10:18:44;;;;;;;4.53;0.90;;;;;;;19.88;43.79;100059.31;5049523;27;102514;-68
2022/05/22 10:21:18;;;;;;;12.60;1.00;;;;;;;19.52;46.18;100057.41;5050458;27;102379;-68
2022/05/22 10:24:10;;;;;;;3.22;0.90;;;;;;;19.24;48.46;100052.59;5041766;27;102540;-67
2022/05/22 10:26:51;;;;;;;7.13;0.77;;;;;;;19.09;49.51;100050.53;5038452;27;103974;-67
2022/05/22 10:29:25;;;;;;;4.13;1.08;;;;;;;18.96;50.79;100047.75;5047168;27;102309;-67
2022/05/22 10:31:58;;;;;;;3.95;1.17;;;;;;;18.89;51.09;100049.47;5043375;27;102661;-67
2022/05/22 10:34:37;;;;;;;4.95;1.00;;;;;;;18.82;51.81;100030.75;5052313;27;102175;-67
2022/05/22 10:37:11;;;;;;;;;;;;;;;18.77;52.30;100039.25;5046517;27;103901;-67
2022/05/22 10:39:38;;;;;;;4.90;0.88;;;;;;;18.70;53.18;100034.28;5045737;27;102191;-67
2022/05/22 10:45:05;;;;;;;9.35;1.10;;;;;;;18.62;55.08;100048.16;5048387;27;102019;-67
2022/05/22 10:47:33;;;;;;;3.42;0.90;;;;;;;18.60;54.34;100044.94;5051420;27;104333;-68
2022/05/22 10:50:18;;;;;;;4.10;1.10;;;;;;;18.56;55.09;100044.00;5044145;27;102096;-68
2022/05/22 10:52:48;;;;;;;2.75;0.90;;;;;;;18.53;56.09;100041.94;5050356;27;102456;-67
2022/05/22 10:55:31;;;;;;;2.35;0.80;;;;;;;18.51;56.08;100033.22;5055481;27;102102;-67
2022/05/22 10:58:03;;;;;;;5.30;1.00;;;;;;;18.48;56.10;100021.72;5052841;27;103945;-67
2022/05/22 11:00:35;;;;;;;2.53;1.02;;;;;;;18.45;57.04;100033.41;5054310;27;101937;-67
2022/05/22 11:03:24;;;;;;;2.10;0.88;;;;;;;18.46;56.85;100035.06;5054430;27;102178;-68
2022/05/22 11:05:52;;;;;;;1.90;1.00;;;;;;;18.44;56.68;100028.25;5054769;27;102313;-67
2022/05/22 11:08:28;;;;;;;1.58;0.80;;;;;;;18.43;57.01;100035.72;5052331;27;104070;-67
2022/05/22 11:11:11;;;;;;;1.23;1.05;;;;;;;18.42;56.94;100027.78;5054992;27;102477;-67
2022/05/22 11:13:37;;;;;;;2.20;0.80;;;;;;;18.40;57.45;100030.91;5044351;27;102455;-67
2022/05/22 11:16:12;;;;;;;4.13;0.88;;;;;;;18.37;58.30;100031.56;5054634;27;102159;-67
2022/05/22 11:18:38;;;;;;;3.47;0.90;;;;;;;18.37;57.89;100031.56;5041218;27;104029;-67
2022/05/22 11:21:14;;;;;;;1.95;0.90;;;;;;;18.34;57.78;100032.25;5053910;27;102605;-68
2022/05/22 11:24:12;;;;;;;3.72;1.08;;;;;;;18.32;58.48;100036.47;5053871;27;102500;-67
2022/05/22 11:26:49;;;;;;;2.03;0.93;;;;;;;18.29;58.75;100021.47;5052133;27;102534;-68
2022/05/22 11:29:29;;;;;;;2.00;0.90;;;;;;;18.30;58.64;100027.75;5053593;27;103841;-67
2022/05/22 11:32:04;;;;;;;1.58;0.70;;;;;;;18.29;58.69;100021.47;5041945;27;101986;-68
2022/05/22 11:35:12;;;;;;;1.42;1.33;;;;;;;18.28;58.76;100028.09;5034630;27;102011;-67
2022/05/22 11:37:55;;;;;;;0.90;0.80;;;;;;;18.27;59.00;100026.50;5023175;27;102253;-67
2022/05/22 11:40:34;;;;;;;1.27;0.90;;;;;;;18.27;58.61;100032.00;5040516;27;103923;-68
2022/05/22 11:43:18;;;;;;;1.60;0.75;;;;;;;18.25;59.15;100039.81;5054435;27;102265;-66
2022/05/22 11:45:55;;;;;;;1.83;0.93;;;;;;;18.25;59.33;100034.31;5053667;27;102368;-67